Oakesdale, Washington
Current Conditions -  °F | °C
As of 6:53 PM on Friday 21 Nov 2014 (Local Time) from KPUW Reporting Station
Light Rain Light Rain  
Wind Chill: 32°   Ceiling: 3800
Heat Index: 41°   Visibility: 7mi
Dew Point: 35°   Wind: 18mph
Humidity: 79%   Direction: 150°SSE
Pressure: 29.58"   Gusts: NA
Location:  47.13°N, 117.24°W
Report Text: KPUW 220253Z AUTO 15016KT 7SM -RA OVC038 05/02 A2958 RMK AO2 SLP030 P0002 60003 T00500017 58041
Loading
Personal Weather Stations






























Interactive Weather Map New forecast layout! Learn more

10-Day Weather Forecast

Advertisements
Track Severe Weather on mobile